sensor_id;sensor_type;location;lat;lon;timestamp;temperature;humidity
4787;DHT22;62338;48.832;9.422;2024-03-08T00:01:59;0.50;99.90
4787;DHT22;62338;48.832;9.422;2024-03-08T00:04:01;0.50;99.90
4787;DHT22;62338;48.832;9.422;2024-03-08T00:06:03;0.40;99.90
4787;DHT22;62338;48.832;9.422;2024-03-08T00:08:06;0.40;99.90
4787;DHT22;62338;48.832;9.422;2024-03-08T00:10:12;0.40;99.90
4787;DHT22;62338;48.832;9.422;2024-03-08T00:12:16;0.40;99.90
4787;DHT22;62338;48.832;9.422;2024-03-08T00:14:18;0.30;99.90
4787;DHT22;62338;48.832;9.422;2024-03-08T00:16:20;0.40;99.90
4787;DHT22;62338;48.832;9.422;2024-03-08T00:18:21;0.40;99.90
4787;DHT22;62338;48.832;9.422;2024-03-08T00:20:24;0.30;99.90
4787;DHT22;62338;48.832;9.422;2024-03-08T00:22:26;0.30;99.90
4787;DHT22;62338;48.832;9.422;2024-03-08T00:24:27;0.30;99.90
4787;DHT22;62338;48.832;9.422;2024-03-08T00:26:30;0.30;99.90
4787;DHT22;62338;48.832;9.422;2024-03-08T00:28:32;0.30;99.90
4787;DHT22;62338;48.832;9.422;2024-03-08T00:30:35;0.30;99.90
4787;DHT22;62338;48.832;9.422;2024-03-08T00:32:37;0.30;99.90
4787;DHT22;62338;48.832;9.422;2024-03-08T00:34:39;0.30;99.90
4787;DHT22;62338;48.832;9.422;2024-03-08T00:36:41;0.30;99.90
4787;DHT22;62338;48.832;9.422;2024-03-08T00:38:43;0.30;99.90
4787;DHT22;62338;48.832;9.422;2024-03-08T00:40:45;0.30;99.90
4787;DHT22;62338;48.832;9.422;2024-03-08T00:42:47;0.30;99.90
4787;DHT22;62338;48.832;9.422;2024-03-08T00:44:49;0.30;99.90
4787;DHT22;62338;48.832;9.422;2024-03-08T00:46:53;0.30;99.90
4787;DHT22;62338;48.832;9.422;2024-03-08T00:48:56;0.30;99.90
4787;DHT22;62338;48.832;9.422;2024-03-08T00:50:58;0.20;99.90
4787;DHT22;62338;48.832;9.422;2024-03-08T00:53:00;0.30;99.90
4787;DHT22;62338;48.832;9.422;2024-03-08T00:55:02;0.30;99.90
4787;DHT22;62338;48.832;9.422;2024-03-08T00:57:04;0.20;99.90
4787;DHT22;62338;48.832;9.422;2024-03-08T00:59:07;0.20;99.90
4787;DHT22;62338;48.832;9.422;2024-03-08T01:01:08;0.20;99.90
4787;DHT22;62338;48.832;9.422;2024-03-08T01:03:11;0.10;99.90
4787;DHT22;62338;48.832;9.422;2024-03-08T01:05:13;0.10;99.90
4787;DHT22;62338;48.832;9.422;2024-03-08T01:07:15;0.10;99.90
4787;DHT22;62338;48.832;9.422;2024-03-08T01:09:17;0.10;99.90
4787;DHT22;62338;48.832;9.422;2024-03-08T01:11:19;0.10;99.90
4787;DHT22;62338;48.832;9.422;2024-03-08T01:13:20;0.10;99.90
4787;DHT22;62338;48.832;9.422;2024-03-08T01:15:23;0.10;99.90
4787;DHT22;62338;48.832;9.422;2024-03-08T01:17:25;0.00;99.90
4787;DHT22;62338;48.832;9.422;2024-03-08T01:19:27;0.10;99.90
4787;DHT22;62338;48.832;9.422;2024-03-08T01:21:29;0.10;99.90
4787;DHT22;62338;48.832;9.422;2024-03-08T01:23:31;0.00;99.90
4787;DHT22;62338;48.832;9.422;2024-03-08T01:25:33;0.00;99.90
4787;DHT22;62338;48.832;9.422;2024-03-08T01:27:35;0.00;99.90
4787;DHT22;62338;48.832;9.422;2024-03-08T01:29:38;0.00;99.90
4787;DHT22;62338;48.832;9.422;2024-03-08T01:31:40;0.10;99.90
4787;DHT22;62338;48.832;9.422;2024-03-08T01:33:42;0.10;99.90
4787;DHT22;62338;48.832;9.422;2024-03-08T01:35:44;0.00;99.90
4787;DHT22;62338;48.832;9.422;2024-03-08T01:37:45;0.00;99.90
4787;DHT22;62338;48.832;9.422;2024-03-08T01:39:47;0.00;99.90
4787;DHT22;62338;48.832;9.422;2024-03-08T01:41:49;0.00;99.90
4787;DHT22;62338;48.832;9.422;2024-03-08T01:43:51;0.00;99.90
4787;DHT22;62338;48.832;9.422;2024-03-08T01:45:56;0.00;99.90
4787;DHT22;62338;48.832;9.422;2024-03-08T01:47:59;0.00;99.90
4787;DHT22;62338;48.832;9.422;2024-03-08T01:50:02;0.00;99.90
4787;DHT22;62338;48.832;9.422;2024-03-08T01:52:05;-0.10;99.90
4787;DHT22;62338;48.832;9.422;2024-03-08T01:54:07;-0.10;99.90
4787;DHT22;62338;48.832;9.422;2024-03-08T01:56:11;-0.10;99.90
4787;DHT22;62338;48.832;9.422;2024-03-08T01:58:15;-0.10;99.90
4787;DHT22;62338;48.832;9.422;2024-03-08T02:00:18;-0.10;99.90
4787;DHT22;62338;48.832;9.422;2024-03-08T02:02:21;-0.20;99.90
4787;DHT22;62338;48.832;9.422;2024-03-08T02:04:23;-0.20;99.90
4787;DHT22;62338;48.832;9.422;2024-03-08T02:06:26;-0.10;99.90
4787;DHT22;62338;48.832;9.422;2024-03-08T02:08:27;-0.20;99.90
4787;DHT22;62338;48.832;9.422;2024-03-08T02:10:29;-0.10;99.90
4787;DHT22;62338;48.832;9.422;2024-03-08T02:12:31;-0.10;99.90
4787;DHT22;62338;48.832;9.422;2024-03-08T02:14:33;-0.10;99.90
4787;DHT22;62338;48.832;9.422;2024-03-08T02:16:35;-0.10;99.90
4787;DHT22;62338;48.832;9.422;2024-03-08T02:18:37;-0.10;99.90
4787;DHT22;62338;48.832;9.422;2024-03-08T02:20:41;-0.10;99.90
4787;DHT22;62338;48.832;9.422;2024-03-08T02:22:43;-0.20;99.90
4787;DHT22;62338;48.832;9.422;2024-03-08T02:24:44;-0.20;99.90
4787;DHT22;62338;48.832;9.422;2024-03-08T02:26:46;-0.10;99.90
4787;DHT22;62338;48.832;9.422;2024-03-08T02:28:48;-0.20;99.90
4787;DHT22;62338;48.832;9.422;2024-03-08T02:30:51;-0.20;99.90
4787;DHT22;62338;48.832;9.422;2024-03-08T02:32:56;-0.20;99.90
4787;DHT22;62338;48.832;9.422;2024-03-08T02:34:58;-0.30;99.90
4787;DHT22;62338;48.832;9.422;2024-03-08T02:37:01;-0.30;99.90
4787;DHT22;62338;48.832;9.422;2024-03-08T02:39:03;-0.30;99.90
4787;DHT22;62338;48.832;9.422;2024-03-08T02:41:07;-0.30;99.90
4787;DHT22;62338;48.832;9.422;2024-03-08T02:43:11;-0.20;99.90
4787;DHT22;62338;48.832;9.422;2024-03-08T02:45:13;-0.30;99.90
4787;DHT22;62338;48.832;9.422;2024-03-08T02:47:15;-0.30;99.90
4787;DHT22;62338;48.832;9.422;2024-03-08T02:49:17;-0.30;99.90
4787;DHT22;62338;48.832;9.422;2024-03-08T02:51:18;-0.30;99.90
4787;DHT22;62338;48.832;9.422;2024-03-08T02:53:21;-0.30;99.90
4787;DHT22;62338;48.832;9.422;2024-03-08T02:55:24;-0.30;99.90
4787;DHT22;62338;48.832;9.422;2024-03-08T02:57:27;-0.30;99.90
4787;DHT22;62338;48.832;9.422;2024-03-08T02:59:29;-0.30;99.90
4787;DHT22;62338;48.832;9.422;2024-03-08T03:01:31;-0.30;99.90
4787;DHT22;62338;48.832;9.422;2024-03-08T03:03:33;-0.30;99.90
4787;DHT22;62338;48.832;9.422;2024-03-08T03:05:35;-0.40;99.90
4787;DHT22;62338;48.832;9.422;2024-03-08T03:07:37;-0.30;99.90
4787;DHT22;62338;48.832;9.422;2024-03-08T03:09:39;-0.30;99.90
4787;DHT22;62338;48.832;9.422;2024-03-08T03:11:44;-0.30;99.90
4787;DHT22;62338;48.832;9.422;2024-03-08T03:13:46;-0.40;99.90
4787;DHT22;62338;48.832;9.422;2024-03-08T03:15:50;-0.40;99.90
4787;DHT22;62338;48.832;9.422;2024-03-08T03:17:53;-0.40;99.90
4787;DHT22;62338;48.832;9.422;2024-03-08T03:19:54;-0.40;99.90
4787;DHT22;62338;48.832;9.422;2024-03-08T03:21:57;-0.50;99.90
4787;DHT22;62338;48.832;9.422;2024-03-08T03:23:59;-0.40;99.90
4787;DHT22;62338;48.832;9.422;2024-03-08T03:26:01;0.80;99.90
4787;DHT22;62338;48.832;9.422;2024-03-08T03:28:04;-0.50;99.90
4787;DHT22;62338;48.832;9.422;2024-03-08T03:30:06;-0.50;99.90
4787;DHT22;62338;48.832;9.422;2024-03-08T03:32:24;-0.40;99.90
4787;DHT22;62338;48.832;9.422;2024-03-08T03:34:26;-0.50;99.90
4787;DHT22;62338;48.832;9.422;2024-03-08T03:36:28;-0.50;99.90
4787;DHT22;62338;48.832;9.422;2024-03-08T03:38:31;-0.50;99.90
4787;DHT22;62338;48.832;9.422;2024-03-08T03:40:34;-0.40;99.90
4787;DHT22;62338;48.832;9.422;2024-03-08T03:42:36;-0.40;99.90
4787;DHT22;62338;48.832;9.422;2024-03-08T03:44:39;-0.40;99.90
4787;DHT22;62338;48.832;9.422;2024-03-08T03:46:44;-0.30;99.90
4787;DHT22;62338;48.832;9.422;2024-03-08T03:48:46;-0.40;99.90
4787;DHT22;62338;48.832;9.422;2024-03-08T03:50:48;-0.40;99.90
4787;DHT22;62338;48.832;9.422;2024-03-08T03:52:51;-0.40;99.90
4787;DHT22;62338;48.832;9.422;2024-03-08T03:54:53;-0.40;99.90
4787;DHT22;62338;48.832;9.422;2024-03-08T03:56:55;-0.40;99.90
4787;DHT22;62338;48.832;9.422;2024-03-08T03:58:57;-0.40;99.90
4787;DHT22;62338;48.832;9.422;2024-03-08T04:00:58;-0.50;99.90
4787;DHT22;62338;48.832;9.422;2024-03-08T04:03:00;-0.50;99.90
4787;DHT22;62338;48.832;9.422;2024-03-08T04:05:06;-0.60;99.90
4787;DHT22;62338;48.832;9.422;2024-03-08T04:07:09;-0.60;99.90
4787;DHT22;62338;48.832;9.422;2024-03-08T04:09:11;-0.60;99.90
4787;DHT22;62338;48.832;9.422;2024-03-08T04:11:14;-0.60;99.90
4787;DHT22;62338;48.832;9.422;2024-03-08T04:13:17;-0.60;99.90
4787;DHT22;62338;48.832;9.422;2024-03-08T04:15:19;-0.60;99.90
4787;DHT22;62338;48.832;9.422;2024-03-08T04:17:22;-0.60;99.90
4787;DHT22;62338;48.832;9.422;2024-03-08T04:19:25;-0.60;99.90
4787;DHT22;62338;48.832;9.422;2024-03-08T04:21:30;-0.60;99.90
4787;DHT22;62338;48.832;9.422;2024-03-08T04:23:32;-0.70;99.90
4787;DHT22;62338;48.832;9.422;2024-03-08T04:25:33;-0.70;99.90
4787;DHT22;62338;48.832;9.422;2024-03-08T04:27:35;-0.70;99.90
4787;DHT22;62338;48.832;9.422;2024-03-08T04:29:37;-0.70;99.90
4787;DHT22;62338;48.832;9.422;2024-03-08T04:31:39;-0.70;99.90
4787;DHT22;62338;48.832;9.422;2024-03-08T04:33:41;-0.70;99.90
4787;DHT22;62338;48.832;9.422;2024-03-08T04:35:43;-0.70;99.90
4787;DHT22;62338;48.832;9.422;2024-03-08T04:37:47;-0.70;99.90
4787;DHT22;62338;48.832;9.422;2024-03-08T04:39:49;-0.70;99.90
4787;DHT22;62338;48.832;9.422;2024-03-08T04:41:51;-0.70;99.90
4787;DHT22;62338;48.832;9.422;2024-03-08T04:43:53;-0.70;99.90
4787;DHT22;62338;48.832;9.422;2024-03-08T04:45:54;-0.70;99.90
4787;DHT22;62338;48.832;9.422;2024-03-08T04:47:56;-0.70;99.90
4787;DHT22;62338;48.832;9.422;2024-03-08T04:49:58;-0.70;99.90
4787;DHT22;62338;48.832;9.422;2024-03-08T04:52:03;-0.70;99.90
4787;DHT22;62338;48.832;9.422;2024-03-08T04:54:05;-0.80;99.90
4787;DHT22;62338;48.832;9.422;2024-03-08T04:56:07;-0.80;99.90
4787;DHT22;62338;48.832;9.422;2024-03-08T04:58:09;-0.80;99.90
4787;DHT22;62338;48.832;9.422;2024-03-08T05:00:11;-0.80;99.90
4787;DHT22;62338;48.832;9.422;2024-03-08T05:02:14;-0.80;99.90
4787;DHT22;62338;48.832;9.422;2024-03-08T05:04:16;-0.80;99.90
4787;DHT22;62338;48.832;9.422;2024-03-08T05:06:18;-0.80;99.90
4787;DHT22;62338;48.832;9.422;2024-03-08T05:08:19;-0.80;99.90
4787;DHT22;62338;48.832;9.422;2024-03-08T05:10:21;-0.80;99.90
4787;DHT22;62338;48.832;9.422;2024-03-08T05:12:23;-0.80;99.90
4787;DHT22;62338;48.832;9.422;2024-03-08T05:14:25;-0.80;99.90
4787;DHT22;62338;48.832;9.422;2024-03-08T05:16:27;-0.90;99.90
4787;DHT22;62338;48.832;9.422;2024-03-08T05:18:28;-0.80;99.90
4787;DHT22;62338;48.832;9.422;2024-03-08T05:20:30;-0.80;99.90
4787;DHT22;62338;48.832;9.422;2024-03-08T05:22:32;-0.90;99.90
4787;DHT22;62338;48.832;9.422;2024-03-08T05:24:34;-0.90;99.90
4787;DHT22;62338;48.832;9.422;2024-03-08T05:26:36;-0.80;99.90
4787;DHT22;62338;48.832;9.422;2024-03-08T05:28:39;-0.80;99.90
4787;DHT22;62338;48.832;9.422;2024-03-08T05:30:40;-0.80;99.90
4787;DHT22;62338;48.832;9.422;2024-03-08T05:32:42;-0.80;99.90
4787;DHT22;62338;48.832;9.422;2024-03-08T05:34:47;-0.60;99.90
4787;DHT22;62338;48.832;9.422;2024-03-08T05:36:49;-0.70;99.90
4787;DHT22;62338;48.832;9.422;2024-03-08T05:38:52;-0.70;99.90
4787;DHT22;62338;48.832;9.422;2024-03-08T05:40:54;-0.70;99.90
4787;DHT22;62338;48.832;9.422;2024-03-08T05:42:56;-0.60;99.90
4787;DHT22;62338;48.832;9.422;2024-03-08T05:44:57;-0.70;99.90
4787;DHT22;62338;48.832;9.422;2024-03-08T05:47:00;-0.60;99.90
4787;DHT22;62338;48.832;9.422;2024-03-08T05:49:03;-0.60;99.90
4787;DHT22;62338;48.832;9.422;2024-03-08T05:51:08;-0.60;99.90
4787;DHT22;62338;48.832;9.422;2024-03-08T05:53:10;-0.70;99.90
4787;DHT22;62338;48.832;9.422;2024-03-08T05:55:11;-0.70;99.90
4787;DHT22;62338;48.832;9.422;2024-03-08T05:57:15;-0.70;99.90
4787;DHT22;62338;48.832;9.422;2024-03-08T05:59:18;-0.80;99.90
4787;DHT22;62338;48.832;9.422;2024-03-08T06:01:20;-0.80;99.90
4787;DHT22;62338;48.832;9.422;2024-03-08T06:03:22;-0.70;99.90
4787;DHT22;62338;48.832;9.422;2024-03-08T06:05:23;-0.70;99.90
4787;DHT22;62338;48.832;9.422;2024-03-08T06:07:26;-0.70;99.90
4787;DHT22;62338;48.832;9.422;2024-03-08T06:09:28;-0.70;99.90
4787;DHT22;62338;48.832;9.422;2024-03-08T06:11:29;-0.70;99.90
4787;DHT22;62338;48.832;9.422;2024-03-08T06:13:33;-0.60;99.90
4787;DHT22;62338;48.832;9.422;2024-03-08T06:15:36;-0.50;99.90
4787;DHT22;62338;48.832;9.422;2024-03-08T06:17:38;-0.40;99.90
4787;DHT22;62338;48.832;9.422;2024-03-08T06:19:40;-0.40;99.90
4787;DHT22;62338;48.832;9.422;2024-03-08T06:21:42;-0.30;99.90
4787;DHT22;62338;48.832;9.422;2024-03-08T06:23:43;-0.30;99.90
4787;DHT22;62338;48.832;9.422;2024-03-08T06:25:45;-0.20;99.90
4787;DHT22;62338;48.832;9.422;2024-03-08T06:27:47;-0.20;99.90
4787;DHT22;62338;48.832;9.422;2024-03-08T06:29:49;-0.20;99.90
4787;DHT22;62338;48.832;9.422;2024-03-08T06:31:50;-0.10;99.90
4787;DHT22;62338;48.832;9.422;2024-03-08T06:33:54;0.00;99.90
4787;DHT22;62338;48.832;9.422;2024-03-08T06:35:58;0.00;99.90
4787;DHT22;62338;48.832;9.422;2024-03-08T06:38:00;0.10;99.90
4787;DHT22;62338;48.832;9.422;2024-03-08T06:40:02;0.20;99.90
4787;DHT22;62338;48.832;9.422;2024-03-08T06:42:09;0.30;99.90
4787;DHT22;62338;48.832;9.422;2024-03-08T06:44:12;0.40;99.90
4787;DHT22;62338;48.832;9.422;2024-03-08T06:46:16;0.50;99.90
4787;DHT22;62338;48.832;9.422;2024-03-08T06:48:19;0.50;99.90
4787;DHT22;62338;48.832;9.422;2024-03-08T06:50:21;0.60;99.90
4787;DHT22;62338;48.832;9.422;2024-03-08T06:52:22;0.60;99.90
4787;DHT22;62338;48.832;9.422;2024-03-08T06:54:24;0.60;99.90
4787;DHT22;62338;48.832;9.422;2024-03-08T06:56:26;0.70;99.90
4787;DHT22;62338;48.832;9.422;2024-03-08T06:58:28;0.70;99.90
4787;DHT22;62338;48.832;9.422;2024-03-08T07:00:30;0.80;99.90
4787;DHT22;62338;48.832;9.422;2024-03-08T07:02:31;0.80;99.90
4787;DHT22;62338;48.832;9.422;2024-03-08T07:04:34;0.90;99.90
4787;DHT22;62338;48.832;9.422;2024-03-08T07:06:39;0.90;99.90
4787;DHT22;62338;48.832;9.422;2024-03-08T07:08:42;1.00;99.90
4787;DHT22;62338;48.832;9.422;2024-03-08T07:10:44;1.00;99.90
4787;DHT22;62338;48.832;9.422;2024-03-08T07:12:46;1.10;99.90
4787;DHT22;62338;48.832;9.422;2024-03-08T07:14:49;1.10;99.90
4787;DHT22;62338;48.832;9.422;2024-03-08T07:16:51;1.20;99.90
4787;DHT22;62338;48.832;9.422;2024-03-08T07:18:52;1.20;99.90
4787;DHT22;62338;48.832;9.422;2024-03-08T07:20:54;1.20;99.90
4787;DHT22;62338;48.832;9.422;2024-03-08T07:22:56;1.20;99.90
4787;DHT22;62338;48.832;9.422;2024-03-08T07:24:58;1.20;99.90
4787;DHT22;62338;48.832;9.422;2024-03-08T07:27:11;1.30;99.90
4787;DHT22;62338;48.832;9.422;2024-03-08T07:29:13;1.30;99.90
4787;DHT22;62338;48.832;9.422;2024-03-08T07:31:15;1.40;99.90
4787;DHT22;62338;48.832;9.422;2024-03-08T07:33:33;1.40;99.90
4787;DHT22;62338;48.832;9.422;2024-03-08T07:35:35;1.40;99.90
4787;DHT22;62338;48.832;9.422;2024-03-08T07:37:40;1.50;99.90
4787;DHT22;62338;48.832;9.422;2024-03-08T07:39:42;1.50;99.90
4787;DHT22;62338;48.832;9.422;2024-03-08T07:41:44;1.50;99.90
4787;DHT22;62338;48.832;9.422;2024-03-08T07:43:46;1.40;99.90
4787;DHT22;62338;48.832;9.422;2024-03-08T07:45:48;1.50;99.90
4787;DHT22;62338;48.832;9.422;2024-03-08T07:47:50;1.60;99.90
4787;DHT22;62338;48.832;9.422;2024-03-08T07:49:52;1.70;99.90
4787;DHT22;62338;48.832;9.422;2024-03-08T07:51:56;1.70;99.90
4787;DHT22;62338;48.832;9.422;2024-03-08T07:53:58;1.60;99.90
4787;DHT22;62338;48.832;9.422;2024-03-08T07:56:00;1.50;99.90
4787;DHT22;62338;48.832;9.422;2024-03-08T07:58:02;1.60;99.90
4787;DHT22;62338;48.832;9.422;2024-03-08T08:00:08;1.60;99.90
4787;DHT22;62338;48.832;9.422;2024-03-08T08:02:10;1.70;99.90
4787;DHT22;62338;48.832;9.422;2024-03-08T08:04:12;1.70;99.90
4787;DHT22;62338;48.832;9.422;2024-03-08T08:06:17;1.70;99.90
4787;DHT22;62338;48.832;9.422;2024-03-08T08:08:19;1.70;99.90
4787;DHT22;62338;48.832;9.422;2024-03-08T08:10:21;1.80;99.90
4787;DHT22;62338;48.832;9.422;2024-03-08T08:12:27;1.80;99.90
4787;DHT22;62338;48.832;9.422;2024-03-08T08:14:30;1.90;99.90
4787;DHT22;62338;48.832;9.422;2024-03-08T08:16:36;1.90;99.90
4787;DHT22;62338;48.832;9.422;2024-03-08T08:18:38;1.90;99.90
4787;DHT22;62338;48.832;9.422;2024-03-08T08:20:41;2.00;99.90
4787;DHT22;62338;48.832;9.422;2024-03-08T08:22:42;2.00;99.90
4787;DHT22;62338;48.832;9.422;2024-03-08T08:24:45;2.00;99.90
4787;DHT22;62338;48.832;9.422;2024-03-08T08:26:47;2.10;99.90
4787;DHT22;62338;48.832;9.422;2024-03-08T08:28:48;2.20;99.90
4787;DHT22;62338;48.832;9.422;2024-03-08T08:30:50;2.20;99.90
4787;DHT22;62338;48.832;9.422;2024-03-08T08:32:52;2.20;99.90
4787;DHT22;62338;48.832;9.422;2024-03-08T08:34:54;2.20;99.90
4787;DHT22;62338;48.832;9.422;2024-03-08T08:36:56;2.20;99.90
4787;DHT22;62338;48.832;9.422;2024-03-08T08:38:57;2.20;99.90
4787;DHT22;62338;48.832;9.422;2024-03-08T08:41:01;5.90;99.90
4787;DHT22;62338;48.832;9.422;2024-03-08T08:43:04;2.30;99.90
4787;DHT22;62338;48.832;9.422;2024-03-08T08:45:07;2.40;99.90
4787;DHT22;62338;48.832;9.422;2024-03-08T08:47:18;2.50;99.90
4787;DHT22;62338;48.832;9.422;2024-03-08T08:49:20;2.70;99.90
4787;DHT22;62338;48.832;9.422;2024-03-08T08:51:22;2.70;99.90
4787;DHT22;62338;48.832;9.422;2024-03-08T08:53:24;2.60;99.90
4787;DHT22;62338;48.832;9.422;2024-03-08T08:55:26;2.60;99.90
4787;DHT22;62338;48.832;9.422;2024-03-08T08:57:28;2.50;99.90
4787;DHT22;62338;48.832;9.422;2024-03-08T08:59:30;2.50;99.90
4787;DHT22;62338;48.832;9.422;2024-03-08T09:01:32;2.40;99.90
4787;DHT22;62338;48.832;9.422;2024-03-08T09:03:34;2.50;99.90
4787;DHT22;62338;48.832;9.422;2024-03-08T09:05:36;2.70;99.90
4787;DHT22;62338;48.832;9.422;2024-03-08T09:07:40;2.70;99.90
4787;DHT22;62338;48.832;9.422;2024-03-08T09:09:42;2.80;99.90
4787;DHT22;62338;48.832;9.422;2024-03-08T09:11:45;2.80;99.90
4787;DHT22;62338;48.832;9.422;2024-03-08T09:13:48;2.80;99.90
4787;DHT22;62338;48.832;9.422;2024-03-08T09:15:50;2.80;99.90
4787;DHT22;62338;48.832;9.422;2024-03-08T09:17:54;2.90;99.90
4787;DHT22;62338;48.832;9.422;2024-03-08T09:19:56;3.20;99.90
4787;DHT22;62338;48.832;9.422;2024-03-08T09:21:59;3.30;99.90
4787;DHT22;62338;48.832;9.422;2024-03-08T09:24:01;3.30;99.90
4787;DHT22;62338;48.832;9.422;2024-03-08T09:26:03;3.40;99.90
4787;DHT22;62338;48.832;9.422;2024-03-08T09:28:11;3.50;99.90
4787;DHT22;62338;48.832;9.422;2024-03-08T09:30:13;3.50;99.90
4787;DHT22;62338;48.832;9.422;2024-03-08T09:32:16;3.40;99.90
4787;DHT22;62338;48.832;9.422;2024-03-08T09:34:18;3.50;99.90
4787;DHT22;62338;48.832;9.422;2024-03-08T09:36:26;3.20;99.90
4787;DHT22;62338;48.832;9.422;2024-03-08T09:38:29;2.90;99.90
4787;DHT22;62338;48.832;9.422;2024-03-08T09:40:30;2.80;99.90
4787;DHT22;62338;48.832;9.422;2024-03-08T09:42:32;2.70;99.90
4787;DHT22;62338;48.832;9.422;2024-03-08T09:44:34;2.80;99.90
4787;DHT22;62338;48.832;9.422;2024-03-08T09:46:36;2.60;99.90
4787;DHT22;62338;48.832;9.422;2024-03-08T09:48:38;2.60;99.90
4787;DHT22;62338;48.832;9.422;2024-03-08T09:50:43;2.70;99.90
4787;DHT22;62338;48.832;9.422;2024-03-08T09:52:49;2.90;99.90
4787;DHT22;62338;48.832;9.422;2024-03-08T09:54:51;2.80;99.90
4787;DHT22;62338;48.832;9.422;2024-03-08T09:56:52;2.60;99.90
4787;DHT22;62338;48.832;9.422;2024-03-08T09:58:55;2.80;99.90
4787;DHT22;62338;48.832;9.422;2024-03-08T10:01:15;2.80;99.90
4787;DHT22;62338;48.832;9.422;2024-03-08T10:03:17;3.00;99.90
4787;DHT22;62338;48.832;9.422;2024-03-08T10:05:18;3.10;99.90
4787;DHT22;62338;48.832;9.422;2024-03-08T10:07:20;3.20;99.90
4787;DHT22;62338;48.832;9.422;2024-03-08T10:09:23;3.40;99.90
4787;DHT22;62338;48.832;9.422;2024-03-08T10:11:26;3.60;99.90
4787;DHT22;62338;48.832;9.422;2024-03-08T10:13:28;3.70;99.90
4787;DHT22;62338;48.832;9.422;2024-03-08T10:15:31;3.50;99.90
4787;DHT22;62338;48.832;9.422;2024-03-08T10:17:35;3.60;99.90
4787;DHT22;62338;48.832;9.422;2024-03-08T10:19:37;3.80;99.90
4787;DHT22;62338;48.832;9.422;2024-03-08T10:21:50;4.00;99.90
4787;DHT22;62338;48.832;9.422;2024-03-08T10:23:56;4.40;99.90
4787;DHT22;62338;48.832;9.422;2024-03-08T10:25:57;4.60;99.90
4787;DHT22;62338;48.832;9.422;2024-03-08T10:28:00;4.60;99.90
4787;DHT22;62338;48.832;9.422;2024-03-08T10:30:24;4.90;99.90
4787;DHT22;62338;48.832;9.422;2024-03-08T10:32:26;5.10;99.90
4787;DHT22;62338;48.832;9.422;2024-03-08T10:34:28;5.30;99.90
4787;DHT22;62338;48.832;9.422;2024-03-08T10:36:31;5.50;99.90
4787;DHT22;62338;48.832;9.422;2024-03-08T10:38:36;5.30;99.90
4787;DHT22;62338;48.832;9.422;2024-03-08T10:40:39;4.90;99.90
4787;DHT22;62338;48.832;9.422;2024-03-08T10:45:06;5.40;99.90
4787;DHT22;62338;48.832;9.422;2024-03-08T10:47:26;5.70;99.90
4787;DHT22;62338;48.832;9.422;2024-03-08T10:49:32;6.00;99.90
4787;DHT22;62338;48.832;9.422;2024-03-08T10:51:37;6.30;99.90
4787;DHT22;62338;48.832;9.422;2024-03-08T10:53:40;6.40;99.90
4787;DHT22;62338;48.832;9.422;2024-03-08T10:55:43;6.40;99.90
4787;DHT22;62338;48.832;9.422;2024-03-08T10:57:46;6.80;99.90
4787;DHT22;62338;48.832;9.422;2024-03-08T10:59:53;6.90;99.90
4787;DHT22;62338;48.832;9.422;2024-03-08T11:02:00;6.60;99.90
4787;DHT22;62338;48.832;9.422;2024-03-08T11:04:04;6.80;99.90
4787;DHT22;62338;48.832;9.422;2024-03-08T11:06:17;6.60;99.90
4787;DHT22;62338;48.832;9.422;2024-03-08T11:08:19;6.50;99.90
4787;DHT22;62338;48.832;9.422;2024-03-08T11:10:22;6.40;99.90
4787;DHT22;62338;48.832;9.422;2024-03-08T11:12:27;6.50;99.90
4787;DHT22;62338;48.832;9.422;2024-03-08T11:14:48;6.80;99.90
4787;DHT22;62338;48.832;9.422;2024-03-08T11:16:53;7.20;99.90
4787;DHT22;62338;48.832;9.422;2024-03-08T11:21:13;7.80;99.90
4787;DHT22;62338;48.832;9.422;2024-03-08T11:23:22;7.90;99.90
4787;DHT22;62338;48.832;9.422;2024-03-08T11:27:33;8.10;99.90
4787;DHT22;62338;48.832;9.422;2024-03-08T11:29:36;8.50;99.90
4787;DHT22;62338;48.832;9.422;2024-03-08T11:31:39;8.70;99.90
4787;DHT22;62338;48.832;9.422;2024-03-08T11:33:41;9.50;99.90
4787;DHT22;62338;48.832;9.422;2024-03-08T11:35:46;9.90;99.90
4787;DHT22;62338;48.832;9.422;2024-03-08T11:37:48;10.20;99.90
4787;DHT22;62338;48.832;9.422;2024-03-08T11:39:52;9.70;99.30
4787;DHT22;62338;48.832;9.422;2024-03-08T11:41:54;9.40;99.90
4787;DHT22;62338;48.832;9.422;2024-03-08T11:44:05;8.90;99.90
4787;DHT22;62338;48.832;9.422;2024-03-08T11:46:08;9.30;99.90
4787;DHT22;62338;48.832;9.422;2024-03-08T11:48:10;9.20;99.90
4787;DHT22;62338;48.832;9.422;2024-03-08T11:50:14;9.10;99.90
4787;DHT22;62338;48.832;9.422;2024-03-08T11:52:17;9.60;99.90
4787;DHT22;62338;48.832;9.422;2024-03-08T11:54:19;9.30;99.90
4787;DHT22;62338;48.832;9.422;2024-03-08T11:56:21;9.50;99.90
4787;DHT22;62338;48.832;9.422;2024-03-08T11:58:25;8.80;99.90
4787;DHT22;62338;48.832;9.422;2024-03-08T12:00:26;8.60;99.90
4787;DHT22;62338;48.832;9.422;2024-03-08T12:02:34;8.10;99.90
4787;DHT22;62338;48.832;9.422;2024-03-08T12:04:41;8.50;99.90
4787;DHT22;62338;48.832;9.422;2024-03-08T12:06:43;9.20;99.90
4787;DHT22;62338;48.832;9.422;2024-03-08T12:08:47;9.30;99.90
4787;DHT22;62338;48.832;9.422;2024-03-08T12:10:52;9.80;99.90
4787;DHT22;62338;48.832;9.422;2024-03-08T12:12:57;10.20;99.90
4787;DHT22;62338;48.832;9.422;2024-03-08T12:15:01;10.90;99.90
4787;DHT22;62338;48.832;9.422;2024-03-08T12:17:03;11.40;97.40
4787;DHT22;62338;48.832;9.422;2024-03-08T12:19:07;11.80;97.70
4787;DHT22;62338;48.832;9.422;2024-03-08T12:21:10;12.00;94.30
4787;DHT22;62338;48.832;9.422;2024-03-08T12:23:14;11.30;94.80
4787;DHT22;62338;48.832;9.422;2024-03-08T12:25:17;10.90;95.10
4787;DHT22;62338;48.832;9.422;2024-03-08T12:27:19;10.90;95.50
4787;DHT22;62338;48.832;9.422;2024-03-08T12:29:24;10.60;95.60
4787;DHT22;62338;48.832;9.422;2024-03-08T12:31:26;10.80;96.10
4787;DHT22;62338;48.832;9.422;2024-03-08T12:33:28;11.30;97.10
4787;DHT22;62338;48.832;9.422;2024-03-08T12:35:30;12.00;95.80
4787;DHT22;62338;48.832;9.422;2024-03-08T12:37:34;12.40;93.60
4787;DHT22;62338;48.832;9.422;2024-03-08T12:39:37;12.70;93.50
4787;DHT22;62338;48.832;9.422;2024-03-08T12:41:39;13.40;93.00
4787;DHT22;62338;48.832;9.422;2024-03-08T12:43:42;13.60;90.70
4787;DHT22;62338;48.832;9.422;2024-03-08T12:45:43;13.10;90.80
4787;DHT22;62338;48.832;9.422;2024-03-08T12:47:45;13.50;91.40
4787;DHT22;62338;48.832;9.422;2024-03-08T12:49:48;13.90;91.00
4787;DHT22;62338;48.832;9.422;2024-03-08T12:51:50;14.10;88.80
4787;DHT22;62338;48.832;9.422;2024-03-08T12:53:54;14.40;87.00
4787;DHT22;62338;48.832;9.422;2024-03-08T12:55:57;14.40;85.20
4787;DHT22;62338;48.832;9.422;2024-03-08T12:57:59;14.70;86.30
4787;DHT22;62338;48.832;9.422;2024-03-08T13:00:03;14.90;86.50
4787;DHT22;62338;48.832;9.422;2024-03-08T13:02:05;15.40;81.80
4787;DHT22;62338;48.832;9.422;2024-03-08T13:04:12;15.70;83.20
4787;DHT22;62338;48.832;9.422;2024-03-08T13:06:15;15.30;80.70
4787;DHT22;62338;48.832;9.422;2024-03-08T13:08:17;15.00;83.10
4787;DHT22;62338;48.832;9.422;2024-03-08T13:10:19;15.40;84.80
4787;DHT22;62338;48.832;9.422;2024-03-08T13:12:22;16.20;80.90
4787;DHT22;62338;48.832;9.422;2024-03-08T13:14:25;16.00;77.70
4787;DHT22;62338;48.832;9.422;2024-03-08T13:16:27;15.40;79.80
4787;DHT22;62338;48.832;9.422;2024-03-08T13:18:31;15.10;82.40
4787;DHT22;62338;48.832;9.422;2024-03-08T13:20:33;15.90;79.80
4787;DHT22;62338;48.832;9.422;2024-03-08T13:22:47;16.00;79.30
4787;DHT22;62338;48.832;9.422;2024-03-08T13:24:48;16.00;77.90